Time;durP1;ratioP1;P1;durP2;ratioP2;P2;SDS_P1;SDS_P2;PMS_P1;PMS_P2;Temp;Humidity;BMP_temperature;BMP_pressure;BME280_temperature;BME280_humidity;BME280_pressure;Samples;Min_cycle;Max_cycle;Signal;HPM_P1;HPM_P2
2021/09/02 00:01:44;;;;;;;;;;;;;;;13.21;58.40;101858.28;4994543;28;19975;-67
2021/09/02 00:04:12;;;;;;;;;;;;;;;13.24;58.71;101860.78;4994050;28;19998;-67
2021/09/02 00:06:40;;;;;;;;;;;;;;;13.31;58.65;101850.47;4993530;28;20013;-67
2021/09/02 00:09:08;;;;;;;;;;;;;;;13.33;59.07;101852.13;4983772;28;19982;-67
2021/09/02 00:11:36;;;;;;;;;;;;;;;13.35;59.37;101858.28;4991538;28;19979;-67
2021/09/02 00:14:04;;;;;;;;;;;;;;;13.35;59.54;101855.59;4994105;28;19982;-66
2021/09/02 00:16:31;;;;;;;;;;;;;;;13.33;59.34;101864.72;4993158;28;20025;-66
2021/09/02 00:19:01;;;;;;;;;;;;;;;13.31;59.72;101861.25;4986700;28;19987;-67
2021/09/02 00:21:28;;;;;;;;;;;;;;;13.24;60.07;101858.09;4989347;28;19982;-66
2021/09/02 00:23:56;;;;;;;;;;;;;;;13.22;60.45;101869.94;4993651;28;20026;-66
2021/09/02 00:26:24;;;;;;;;;;;;;;;13.22;60.81;101873.50;4993187;28;19994;-67
2021/09/02 00:28:52;;;;;;;;;;;;;;;13.22;60.81;101878.88;4991893;28;20356;-66
2021/09/02 00:31:19;;;;;;;;;;;;;;;13.19;60.95;101873.69;4986919;28;20464;-67
2021/09/02 00:33:47;;;;;;;;;;;;;;;13.17;60.99;101874.72;4989639;28;19986;-67
2021/09/02 00:36:17;;;;;;;;;;;;;;;13.16;60.53;101881.03;4984115;28;20437;-66
2021/09/02 00:38:44;;;;;;;;;;;;;;;13.10;61.03;101876.88;4993558;28;20005;-67
2021/09/02 00:41:12;;;;;;;;;;;;;;;13.10;60.83;101879.56;4993763;28;20101;-67
2021/09/02 00:43:41;;;;;;;;;;;;;;;13.12;60.77;101883.03;4992115;28;20294;-66
2021/09/02 00:46:09;;;;;;;;;;;;;;;13.11;60.86;101888.53;4993367;28;20028;-67
2021/09/02 00:48:37;;;;;;;;;;;;;;;13.02;60.55;101888.13;4993324;28;20029;-67
2021/09/02 00:51:05;;;;;;;;;;;;;;;13.00;61.22;101890.06;4986560;28;20069;-67
2021/09/02 00:53:34;;;;;;;;;;;;;;;12.98;61.90;101886.59;4993061;28;19974;-67
2021/09/02 00:56:02;;;;;;;;;;;;;;;12.91;61.50;101897.84;4991996;28;20040;-66
2021/09/02 00:58:30;;;;;;;;;;;;;;;12.84;61.94;101894.59;4990179;28;20029;-66
2021/09/02 01:00:57;;;;;;;;;;;;;;;12.85;62.33;101898.16;4989100;28;20703;-67
2021/09/02 01:03:25;;;;;;;;;;;;;;;12.83;61.68;101897.38;4996753;28;19974;-66
2021/09/02 01:05:56;;;;;;;;;;;;;;;12.84;62.31;101905.38;5001119;28;20373;-67
2021/09/02 01:08:23;;;;;;;;;;;;;;;12.37;62.30;101828.19;4989473;28;19974;-67
2021/09/02 01:10:53;;;;;;;;;;;;;;;12.83;62.63;101897.38;4991763;28;20456;-67
2021/09/02 01:13:21;;;;;;;;;;;;;;;12.82;62.18;101892.97;4994784;28;19978;-67
2021/09/02 01:15:49;;;;;;;;;;;;;;;12.81;62.76;101899.31;4981275;28;19982;-66
2021/09/02 01:18:16;;;;;;;;;;;;;;;12.71;62.33;101894.47;4986471;28;20021;-67
2021/09/02 01:20:44;;;;;;;;;;;;;;;12.70;62.41;101898.13;4983553;28;19978;-67
2021/09/02 01:23:16;;;;;;;;;;;;;;;12.69;63.33;101899.06;4992228;28;19978;-67
2021/09/02 01:25:45;;;;;;;;;;;;;;;12.68;62.21;101904.56;4988991;28;20464;-67
2021/09/02 01:28:14;;;;;;;;;;;;;;;12.69;63.53;101898.22;4983291;28;20418;-66
2021/09/02 01:30:42;;;;;;;;;;;;;;;12.71;63.44;101905.25;4980292;28;20346;-67
2021/09/02 01:33:11;;;;;;;;;;;;;;;12.72;63.01;101901.59;4991250;28;19981;-67
2021/09/02 01:35:39;;;;;;;;;;;;;;;12.65;62.14;101902.91;4992467;28;19994;-67
2021/09/02 01:38:07;;;;;;;;;;;;;;;12.72;63.18;101898.91;4991855;28;19986;-66
2021/09/02 01:40:38;;;;;;;;;;;;;;;12.67;62.54;101897.44;4986779;28;19983;-67
2021/09/02 01:43:07;;;;;;;;;;;;;;;12.72;62.37;101895.34;4985186;28;20024;-67
2021/09/02 01:45:35;;;;;;;;;;;;;;;12.68;62.13;101893.78;4991434;28;19978;-66
2021/09/02 01:48:04;;;;;;;;;;;;;;;12.64;61.88;101895.78;4984122;28;19982;-67
2021/09/02 01:50:33;;;;;;;;;;;;;;;12.62;63.00;101886.91;4975461;28;20389;-67
2021/09/02 01:53:04;;;;;;;;;;;;;;;12.61;62.80;101887.88;4981964;28;20005;-66
2021/09/02 01:55:31;;;;;;;;;;;;;;;12.57;62.97;101891.72;4983250;28;19978;-66
2021/09/02 01:58:01;;;;;;;;;;;;;;;12.49;62.87;101891.25;4985747;28;19985;-67
2021/09/02 02:00:29;;;;;;;;;;;;;;;12.48;62.81;101897.59;4993513;28;20029;-66
2021/09/02 02:02:57;;;;;;;;;;;;;;;12.46;63.10;101887.88;4991687;28;19985;-67
2021/09/02 02:05:25;;;;;;;;;;;;;;;12.45;63.12;101892.41;4978816;28;20048;-66
2021/09/02 02:07:53;;;;;;;;;;;;;;;12.39;62.84;101896.31;4986791;28;19995;-67
2021/09/02 02:10:22;;;;;;;;;;;;;;;12.34;63.27;101900.22;4991497;28;20396;-66
2021/09/02 02:12:50;;;;;;;;;;;;;;;12.31;63.39;101897.72;4991080;28;20009;-67
2021/09/02 02:15:19;;;;;;;;;;;;;;;12.24;63.08;101901.69;5006484;28;19985;-66
2021/09/02 02:17:47;;;;;;;;;;;;;;;12.25;63.24;101890.00;4991747;28;20384;-66
2021/09/02 02:20:15;;;;;;;;;;;;;;;12.24;63.15;101896.28;4991343;28;20464;-66
2021/09/02 02:22:44;;;;;;;;;;;;;;;12.21;63.37;101904.56;4991331;28;20291;-67
2021/09/02 02:25:13;;;;;;;;;;;;;;;12.20;63.53;101910.91;4991234;28;19982;-67
2021/09/02 02:27:41;;;;;;;;;;;;;;;12.19;63.49;101906.47;4985454;28;20614;-67
2021/09/02 02:30:10;;;;;;;;;;;;;;;12.17;62.93;101909.25;4987775;28;20315;-66
2021/09/02 02:32:40;;;;;;;;;;;;;;;12.16;62.95;101906.63;4986397;28;19982;-67
2021/09/02 02:35:08;;;;;;;;;;;;;;;12.15;62.83;101904.91;4972390;28;20025;-68
2021/09/02 02:37:36;;;;;;;;;;;;;;;12.07;62.98;101900.81;5003759;28;20372;-67
2021/09/02 02:40:04;;;;;;;;;;;;;;;12.11;63.40;101902.38;4990756;28;19978;-66
2021/09/02 02:42:32;;;;;;;;;;;;;;;12.09;63.01;101901.59;4981335;28;20009;-67
2021/09/02 02:45:00;;;;;;;;;;;;;;;12.08;62.58;101901.69;4980274;28;19986;-66
2021/09/02 02:47:28;;;;;;;;;;;;;;;12.01;62.99;101909.25;4993598;28;20471;-67
2021/09/02 02:49:58;;;;;;;;;;;;;;;11.98;62.46;101898.63;4978751;28;20469;-67
2021/09/02 02:52:25;;;;;;;;;;;;;;;11.93;62.98;101900.69;4978797;28;19949;-67
2021/09/02 02:54:53;;;;;;;;;;;;;;;11.93;62.71;101906.06;4990664;28;20094;-67
2021/09/02 02:57:21;;;;;;;;;;;;;;;11.93;62.43;101906.06;4979069;28;20435;-67
2021/09/02 02:59:49;;;;;;;;;;;;;;;11.94;63.11;101901.56;4989328;28;20005;-67
2021/09/02 03:02:17;;;;;;;;;;;;;;;11.92;62.59;101904.34;4989323;28;20703;-66
2021/09/02 03:04:45;;;;;;;;;;;;;;;11.93;63.39;101905.19;4991263;28;20002;-65
2021/09/02 03:07:14;;;;;;;;;;;;;;;11.90;63.27;101900.88;4989194;28;20001;-68
2021/09/02 03:09:42;;;;;;;;;;;;;;;11.90;63.31;101903.56;4991143;28;20488;-68
2021/09/02 03:12:10;;;;;;;;;;;;;;;11.89;63.20;101904.50;5005343;28;20029;-67
2021/09/02 03:14:37;;;;;;;;;;;;;;;11.87;63.24;101898.34;4985892;28;20402;-66
2021/09/02 03:17:05;;;;;;;;;;;;;;;11.86;63.03;101893.03;4987112;28;19983;-67
2021/09/02 03:19:33;;;;;;;;;;;;;;;11.88;63.47;101896.50;4989835;28;19978;-67
2021/09/02 03:22:01;;;;;;;;;;;;;;;11.87;63.05;101892.97;4986140;28;20457;-67
2021/09/02 03:24:31;;;;;;;;;;;;;;;11.91;63.10;101891.84;4986752;28;19985;-66
2021/09/02 03:26:59;;;;;;;;;;;;;;;11.88;63.20;101897.38;4984276;28;20024;-66
2021/09/02 03:29:26;;;;;;;;;;;;;;;11.88;63.60;101883.94;4987709;28;19974;-66
2021/09/02 03:31:54;;;;;;;;;;;;;;;11.91;63.16;101890.97;4990679;28;19978;-67
2021/09/02 03:34:22;;;;;;;;;;;;;;;11.90;64.16;101882.03;5004848;28;19978;-66
2021/09/02 03:36:51;;;;;;;;;;;;;;;11.85;63.91;101876.03;4990374;28;19978;-67
2021/09/02 03:39:19;;;;;;;;;;;;;;;11.88;63.99;101883.06;4985567;28;20345;-67
2021/09/02 03:41:48;;;;;;;;;;;;;;;11.84;64.19;101886.88;4990652;28;19974;-66
2021/09/02 03:44:16;;;;;;;;;;;;;;;11.80;64.37;101891.56;4982888;28;20306;-66
2021/09/02 03:46:44;;;;;;;;;;;;;;;11.80;64.67;101889.75;5003959;28;20354;-66
2021/09/02 03:49:12;;;;;;;;;;;;;;;11.77;64.14;101886.31;4988686;28;20388;-66
2021/09/02 03:51:40;;;;;;;;;;;;;;;11.77;64.95;101889.00;4988683;28;19974;-66
2021/09/02 03:54:07;;;;;;;;;;;;;;;11.78;64.70;101893.47;4986404;28;20001;-66
2021/09/02 03:56:36;;;;;;;;;;;;;;;11.77;64.35;101884.50;4986934;28;19987;-66
2021/09/02 03:59:05;;;;;;;;;;;;;;;11.77;64.42;101889.00;4983480;28;19974;-66
2021/09/02 04:01:33;;;;;;;;;;;;;;;11.71;63.62;101886.66;4978294;28;20026;-67
2021/09/02 04:04:01;;;;;;;;;;;;;;;11.73;63.84;101892.81;4986462;28;20024;-66
2021/09/02 04:06:29;;;;;;;;;;;;;;;11.76;63.94;101881.88;4981491;28;20123;-66
2021/09/02 04:08:57;;;;;;;;;;;;;;;11.79;63.72;101879.94;4972462;28;20041;-66
2021/09/02 04:11:25;;;;;;;;;;;;;;;11.80;63.88;101884.34;4988582;28;19984;-66
2021/09/02 04:13:52;;;;;;;;;;;;;;;11.82;63.68;101886.97;4990412;28;20032;-67
2021/09/02 04:16:22;;;;;;;;;;;;;;;11.48;63.95;101828.69;4989279;28;19981;-67
2021/09/02 04:18:50;;;;;;;;;;;;;;;11.83;63.68;101888.69;4982718;28;19985;-67
2021/09/02 04:21:18;;;;;;;;;;;;;;;11.87;64.17;101879.50;4989845;28;20341;-67
2021/09/02 04:23:48;;;;;;;;;;;;;;;11.92;63.82;101882.81;4991780;28;19979;-66
2021/09/02 04:26:16;;;;;;;;;;;;;;;12.00;63.47;101885.09;4991787;28;19974;-67
2021/09/02 04:28:44;;;;;;;;;;;;;;;12.10;64.35;101886.31;4987520;28;19998;-67
2021/09/02 04:31:11;;;;;;;;;;;;;;;12.16;64.29;101890.47;4986085;28;20011;-67
2021/09/02 04:33:41;;;;;;;;;;;;;;;12.20;63.35;101886.66;4988609;28;20127;-67
2021/09/02 04:36:08;;;;;;;;;;;;;;;12.30;63.36;101885.19;4990201;28;20025;-67
2021/09/02 04:38:36;;;;;;;;;;;;;;;12.35;62.85;101889.38;4989435;28;19975;-67
2021/09/02 04:41:04;;;;;;;;;;;;;;;12.40;63.60;101889.97;4991897;28;21328;-67
2021/09/02 04:43:32;;;;;;;;;;;;;;;12.48;63.40;101889.53;4991013;28;20360;-67
2021/09/02 04:46:00;;;;;;;;;;;;;;;12.56;62.53;101892.69;4987022;28;19976;-67
2021/09/02 04:48:28;;;;;;;;;;;;;;;12.68;62.83;101899.16;4986033;28;20053;-67
2021/09/02 04:50:57;;;;;;;;;;;;;;;12.80;62.74;101900.28;4992603;28;20437;-67
2021/09/02 04:53:25;;;;;;;;;;;;;;;12.90;62.09;101894.25;4994393;28;20345;-67
2021/09/02 04:55:53;;;;;;;;;;;;;;;12.98;62.17;101896.50;4981601;28;19983;-67
2021/09/02 04:58:20;;;;;;;;;;;;;;;13.07;61.81;101898.66;4979741;28;19990;-67
2021/09/02 05:00:48;;;;;;;;;;;;;;;13.19;61.39;101895.25;4973464;28;19982;-68
2021/09/02 05:03:16;;;;;;;;;;;;;;;13.29;61.67;101901.81;4985117;28;20057;-67
2021/09/02 05:05:44;;;;;;;;;;;;;;;13.42;60.90;101907.34;4980892;28;20392;-67
2021/09/02 05:08:14;;;;;;;;;;;;;;;13.55;60.83;101908.34;4976577;28;20009;-67
2021/09/02 05:10:41;;;;;;;;;;;;;;;13.68;59.92;101917.41;4983427;28;20438;-67
2021/09/02 05:13:09;;;;;;;;;;;;;;;13.85;60.85;101912.81;4973404;28;20647;-67
2021/09/02 05:15:37;;;;;;;;;;;;;;;13.99;60.52;101907.38;4969338;28;19983;-68
2021/09/02 05:18:05;;;;;;;;;;;;;;;14.14;59.37;101913.66;4972901;28;20329;-67
2021/09/02 05:20:33;;;;;;;;;;;;;;;14.28;59.63;101908.22;4981992;28;20661;-68
2021/09/02 05:23:00;;;;;;;;;;;;;;;14.42;58.58;101910.06;4980608;28;20375;-67
2021/09/02 05:25:30;;;;;;;;;;;;;;;14.59;59.13;101901.72;4984705;28;20077;-67
2021/09/02 05:27:58;;;;;;;;;;;;;;;14.77;57.02;101905.06;4985794;28;19990;-66
2021/09/02 05:30:25;;;;;;;;;;;;;;;14.96;57.60;101904.66;4984624;28;19986;-67
2021/09/02 05:32:53;;;;;;;;;;;;;;;15.15;58.05;101900.63;4986022;28;20648;-67
2021/09/02 05:35:21;;;;;;;;;;;;;;;15.31;57.00;101910.41;4977247;28;20036;-67
2021/09/02 05:37:49;;;;;;;;;;;;;;;15.48;55.39;101901.97;4983333;28;20388;-66
2021/09/02 05:40:17;;;;;;;;;;;;;;;15.58;56.13;101907.59;4983261;28;20243;-66
2021/09/02 05:42:47;;;;;;;;;;;;;;;15.79;55.82;101904.28;4982424;28;19986;-66
2021/09/02 05:45:14;;;;;;;;;;;;;;;15.97;56.11;101902.13;4981596;28;19978;-67
2021/09/02 05:47:42;;;;;;;;;;;;;;;16.19;55.32;101901.41;4988737;28;20401;-67
2021/09/02 05:50:10;;;;;;;;;;;;;;;16.38;55.48;101898.22;4990592;28;19999;-66
2021/09/02 05:52:38;;;;;;;;;;;;;;;16.53;54.78;101896.22;4988425;28;19982;-66
2021/09/02 05:55:07;;;;;;;;;;;;;;;16.67;52.60;101890.69;4979302;28;20048;-66
2021/09/02 05:57:35;;;;;;;;;;;;;;;16.90;54.37;101892.53;4997326;28;19978;-66
2021/09/02 06:00:04;;;;;;;;;;;;;;;16.93;51.58;101888.72;4994879;28;19978;-66
2021/09/02 06:02:38;;;;;;;;;;;;;;;17.05;53.50;101895.91;4983782;28;19974;-66
2021/09/02 06:05:07;;;;;;;;;;;;;;;17.21;52.31;101898.31;4977910;28;20373;-66
2021/09/02 06:07:34;;;;;;;;;;;;;;;17.36;53.19;101897.13;4970157;28;19975;-66
2021/09/02 06:10:02;;;;;;;;;;;;;;;17.60;51.21;101894.34;4985751;28;19997;-66
2021/09/02 06:12:30;;;;;;;;;;;;;;;17.72;49.65;101896.09;4979940;28;19974;-66
2021/09/02 06:14:58;;;;;;;;;;;;;;;17.84;50.33;101897.00;4977559;28;20051;-66
2021/09/02 06:17:28;;;;;;;;;;;;;;;18.08;52.17;101895.03;4984485;28;19978;-67
2021/09/02 06:19:56;;;;;;;;;;;;;;;18.26;50.10;101890.78;4987659;28;20333;-66
2021/09/02 06:22:24;;;;;;;;;;;;;;;18.39;48.96;101896.13;4988379;28;20004;-67
2021/09/02 06:24:51;;;;;;;;;;;;;;;18.63;51.61;101887.78;4988470;28;21204;-67
2021/09/02 06:27:19;;;;;;;;;;;;;;;18.73;50.14;101879.75;4983568;28;20085;-67
2021/09/02 06:29:47;;;;;;;;;;;;;;;19.00;50.77;101882.00;4988895;28;19991;-67
2021/09/02 06:32:15;;;;;;;;;;;;;;;19.16;50.00;101882.38;4988655;28;19978;-67
2021/09/02 06:34:44;;;;;;;;;;;;;;;19.30;47.08;101870.31;4981972;28;19975;-67
2021/09/02 06:37:12;;;;;;;;;;;;;;;19.56;47.50;101866.19;4984102;28;20036;-67
2021/09/02 06:39:40;;;;;;;;;;;;;;;19.63;48.26;101869.28;4983127;28;19981;-67
2021/09/02 06:42:08;;;;;;;;;;;;;;;19.90;48.24;101871.38;4989209;28;19983;-66
2021/09/02 06:44:35;;;;;;;;;;;;;;;19.97;48.86;101878.91;4998693;28;19975;-66
2021/09/02 06:47:03;;;;;;;;;;;;;;;20.00;46.43;101885.94;4980641;28;19979;-66
2021/09/02 06:49:31;;;;;;;;;;;;;;;20.05;46.21;101886.41;4992106;28;20465;-66
2021/09/02 06:52:00;;;;;;;;;;;;;;;20.07;46.48;101887.97;4993879;28;20392;-66
2021/09/02 06:54:28;;;;;;;;;;;;;;;20.21;46.15;101885.91;5001578;28;20442;-66
2021/09/02 06:56:56;;;;;;;;;;;;;;;20.43;46.92;101882.97;4984550;28;20430;-66
2021/09/02 06:59:24;;;;;;;;;;;;;;;20.54;46.09;101876.53;4996619;28;19982;-66
2021/09/02 07:01:52;;;;;;;;;;;;;;;20.64;45.83;101880.13;4989612;28;19978;-66
2021/09/02 07:04:20;;;;;;;;;;;;;;;20.50;46.17;101875.94;4989791;28;19998;-66
2021/09/02 07:06:48;;;;;;;;;;;;;;;20.79;45.31;101873.25;4989461;28;20029;-66
2021/09/02 07:09:17;;;;;;;;;;;;;;;21.00;44.90;101873.13;4990022;28;20438;-66
2021/09/02 07:11:45;;;;;;;;;;;;;;;21.10;46.12;101879.44;4976366;28;19979;-66
2021/09/02 07:14:14;;;;;;;;;;;;;;;20.94;46.67;101879.16;4976235;28;20466;-66
2021/09/02 07:16:41;;;;;;;;;;;;;;;21.26;47.02;101873.44;4989981;28;19985;-66
2021/09/02 07:19:09;;;;;;;;;;;;;;;21.48;45.63;101870.38;4984539;28;20352;-66
2021/09/02 07:21:37;;;;;;;;;;;;;;;21.49;46.31;101868.50;4988381;28;19974;-66
2021/09/02 07:24:05;;;;;;;;;;;;;;;21.68;45.55;101868.44;4991690;28;19975;-66
2021/09/02 07:26:36;;;;;;;;;;;;;;;21.61;45.04;101864.56;4997698;28;19974;-66
2021/09/02 07:29:04;;;;;;;;;;;;;;;21.64;45.36;101875.22;4979022;28;20476;-66
2021/09/02 07:31:32;;;;;;;;;;;;;;;21.57;45.24;101883.16;4989803;28;20417;-66
2021/09/02 07:34:02;;;;;;;;;;;;;;;21.68;44.85;101874.75;5002910;28;20372;-66
2021/09/02 07:36:30;;;;;;;;;;;;;;;21.35;44.31;101878.88;4990114;28;19978;-66
2021/09/02 07:39:14;;;;;;;;;;;;;;;21.50;44.61;101875.69;4989593;28;20065;-65
2021/09/02 07:41:44;;;;;;;;;;;;;;;21.60;45.74;101863.72;4975967;28;20389;-66
2021/09/02 07:44:11;;;;;;;;;;;;;;;21.75;45.39;101858.66;4989132;28;20011;-66
2021/09/02 07:46:39;;;;;;;;;;;;;;;21.71;45.17;101862.66;4989491;28;19982;-66
2021/09/02 07:49:07;;;;;;;;;;;;;;;21.71;43.94;101857.19;4988422;28;20013;-66
2021/09/02 07:51:35;;;;;;;;;;;;;;;21.58;45.15;101873.94;4989653;28;19982;-66
2021/09/02 07:54:03;;;;;;;;;;;;;;;21.76;43.67;101871.31;4991520;28;20349;-66
2021/09/02 07:56:30;;;;;;;;;;;;;;;21.71;44.89;101865.41;4993669;28;20440;-66
2021/09/02 07:59:00;;;;;;;;;;;;;;;21.80;44.52;101872.72;4986324;28;20133;-66
2021/09/02 08:01:27;;;;;;;;;;;;;;;21.70;45.13;101872.75;4993250;28;19982;-66
2021/09/02 08:03:56;;;;;;;;;;;;;;;21.27;45.67;101878.75;4998108;28;20041;-67
2021/09/02 08:06:24;;;;;;;;;;;;;;;21.47;45.94;101873.25;5000892;28;19978;-66
2021/09/02 08:08:52;;;;;;;;;;;;;;;21.44;45.82;101868.09;4992876;28;19985;-67
2021/09/02 08:11:19;;;;;;;;;;;;;;;21.50;45.29;101865.63;4991758;28;20002;-67
2021/09/02 08:13:47;;;;;;;;;;;;;;;21.53;46.52;101861.72;4994818;28;20387;-67
2021/09/02 08:16:16;;;;;;;;;;;;;;;21.64;46.31;101872.47;5012509;28;20433;-66
2021/09/02 08:18:44;;;;;;;;;;;;;;;21.73;46.10;101866.13;4996827;28;20358;-67
2021/09/02 08:21:12;;;;;;;;;;;;;;;21.59;45.56;101866.59;4992527;28;19978;-66
2021/09/02 08:23:40;;;;;;;;;;;;;;;21.45;45.39;101856.16;4993223;28;19978;-66
2021/09/02 08:26:08;;;;;;;;;;;;;;;21.37;46.22;101865.06;4978751;28;19978;-66
2021/09/02 08:28:36;;;;;;;;;;;;;;;21.30;45.59;101853.84;4992836;28;19978;-66
2021/09/02 08:31:03;;;;;;;;;;;;;;;21.40;45.55;101842.91;4992333;28;20446;-66
2021/09/02 08:33:33;;;;;;;;;;;;;;;21.50;45.73;101842.91;4991117;28;19986;-66
2021/09/02 08:36:01;;;;;;;;;;;;;;;21.54;46.38;101836.97;4990942;28;20009;-67
2021/09/02 08:38:29;;;;;;;;;;;;;;;21.68;46.00;101835.63;4990050;28;20013;-67
2021/09/02 08:40:57;;;;;;;;;;;;;;;21.73;46.52;101836.03;4992895;28;19983;-67
2021/09/02 08:43:25;;;;;;;;;;;;;;;21.80;46.15;101828.97;4991826;28;20052;-67
2021/09/02 08:46:10;;;;;;;;;;;;;;;22.01;45.12;101832.31;5007575;28;20332;-67
2021/09/02 08:48:41;;;;;;;;;;;;;;;22.25;44.74;101828.19;4991763;28;19981;-67
2021/09/02 08:51:09;;;;;;;;;;;;;;;22.18;44.87;101821.63;4982337;28;20002;-67
2021/09/02 08:53:37;;;;;;;;;;;;;;;22.31;44.12;101822.09;5003427;28;19983;-67
2021/09/02 08:56:05;;;;;;;;;;;;;;;22.19;44.89;101809.66;4991789;28;20032;-67
2021/09/02 08:58:33;;;;;;;;;;;;;;;22.15;43.72;101816.44;4998597;28;19974;-67
2021/09/02 09:01:01;;;;;;;;;;;;;;;22.21;44.00;101818.56;4992332;28;19979;-67
2021/09/02 09:03:30;;;;;;;;;;;;;;;22.19;45.24;101815.13;4986933;28;19974;-67
2021/09/02 09:06:04;;;;;;;;;;;;;;;22.23;44.71;101811.06;4992590;28;19989;-67
2021/09/02 09:08:33;;;;;;;;;;;;;;;22.22;43.59;101814.81;4987496;28;19974;-67
2021/09/02 09:11:14;;;;;;;;;;;;;;;22.30;45.12;101809.41;4992145;28;20404;-67
2021/09/02 09:13:42;;;;;;;;;;;;;;;22.39;44.66;101808.53;4985096;28;19989;-67
2021/09/02 09:16:10;;;;;;;;;;;;;;;22.53;43.22;101788.81;4981244;28;19979;-67
2021/09/02 09:18:41;;;;;;;;;;;;;;;22.68;44.41;101793.75;4989970;28;20424;-67
2021/09/02 09:21:12;;;;;;;;;;;;;;;22.73;44.94;101794.13;4980433;28;19979;-68
2021/09/02 09:23:50;;;;;;;;;;;;;;;22.94;44.51;101797.41;4991301;28;19982;-67
2021/09/02 09:26:18;;;;;;;;;;;;;;;23.21;43.70;101775.34;4982145;28;19979;-68
2021/09/02 09:28:46;;;;;;;;;;;;;;;23.17;44.23;101776.69;4986131;28;19982;-67
2021/09/02 09:31:32;;;;;;;;;;;;;;;23.04;42.89;101787.22;4991489;28;20453;-68
2021/09/02 09:34:01;;;;;;;;;;;;;;;22.87;43.65;101794.44;4991288;28;20361;-67
2021/09/02 09:36:31;;;;;;;;;;;;;;;23.01;43.43;101793.03;4991813;28;20029;-67
2021/09/02 09:39:00;;;;;;;;;;;;;;;23.20;42.80;101786.47;4990590;28;19982;-67
2021/09/02 09:41:36;;;;;;;;;;;;;;;23.09;42.62;101770.31;5006124;28;20293;-67
2021/09/02 09:44:30;;;;;;;;;;;;;;;23.22;43.77;101768.84;4991016;28;19978;-67
2021/09/02 09:47:14;;;;;;;;;;;;;;;23.45;42.92;101762.81;4968066;28;19982;-67
2021/09/02 09:50:00;;;;;;;;;;;;;;;23.64;43.45;101759.88;4990398;28;20480;-67
2021/09/02 09:52:31;;;;;;;;;;;;;;;23.57;41.56;101767.03;4991267;28;20326;-67
2021/09/02 09:55:04;;;;;;;;;;;;;;;23.52;42.41;101758.41;4973374;28;20025;-67
2021/09/02 09:57:34;;;;;;;;;;;;;;;23.76;42.43;101750.31;4986361;28;20403;-67
2021/09/02 10:00:04;;;;;;;;;;;;;;;23.78;41.82;101755.63;4995537;28;20472;-67
2021/09/02 10:02:39;;;;;;;;;;;;;;;23.84;41.72;101757.72;5000409;28;20411;-67
2021/09/02 10:05:09;;;;;;;;;;;;;;;23.85;41.68;101753.94;4995183;28;19981;-67
2021/09/02 10:07:38;;;;;;;;;;;;;;;23.67;40.39;101761.44;4983737;28;19984;-67
2021/09/02 10:10:09;;;;;;;;;;;;;;;23.65;41.68;101750.63;4984707;28;20400;-67
2021/09/02 10:12:37;;;;;;;;;;;;;;;23.74;42.68;101755.13;4998031;28;20535;-67
2021/09/02 10:15:06;;;;;;;;;;;;;;;23.79;41.66;101746.38;4997254;28;19978;-67
2021/09/02 10:17:36;;;;;;;;;;;;;;;23.72;42.49;101751.69;4989517;28;19978;-67
2021/09/02 10:20:09;;;;;;;;;;;;;;;23.49;42.04;101703.88;4991342;28;19979;-67
2021/09/02 10:22:38;;;;;;;;;;;;;;;23.71;42.04;101739.00;4990683;28;20708;-67
2021/09/02 10:25:34;;;;;;;;;;;;;;;23.84;41.27;101747.59;4990713;28;19979;-68
2021/09/02 10:28:03;;;;;;;;;;;;;;;23.86;42.97;101739.19;4981565;28;19974;-67
2021/09/02 10:30:31;;;;;;;;;;;;;;;24.10;42.08;101732.94;4995784;28;19983;-66
2021/09/02 10:33:00;;;;;;;;;;;;;;;24.21;41.68;101729.88;4990468;28;20344;-66
2021/09/02 10:35:35;;;;;;;;;;;;;;;24.04;41.12;101731.72;4989768;28;19986;-67
2021/09/02 10:38:05;;;;;;;;;;;;;;;24.03;40.65;101723.66;4987271;28;20496;-66
2021/09/02 10:40:48;;;;;;;;;;;;;;;23.92;40.18;101727.59;4990983;28;19989;-66
2021/09/02 10:43:35;;;;;;;;;;;;;;;23.98;41.44;101717.81;4987720;28;20373;-66
2021/09/02 10:46:04;;;;;;;;;;;;;;;24.00;40.94;101726.75;4989627;28;20044;-66
2021/09/02 10:48:47;;;;;;;;;;;;;;;23.71;40.64;101724.41;4990347;28;20334;-66
2021/09/02 10:51:34;;;;;;;;;;;;;;;23.70;40.93;101722.69;4989554;28;20488;-66
2021/09/02 10:54:04;;;;;;;;;;;;;;;23.82;40.92;101711.25;4973762;28;19978;-66
2021/09/02 10:56:33;;;;;;;;;;;;;;;23.80;39.83;101717.91;4973380;28;19978;-66
2021/09/02 10:59:02;;;;;;;;;;;;;;;23.94;40.03;101711.81;4986282;28;20388;-66
2021/09/02 11:01:31;;;;;;;;;;;;;;;24.10;40.59;101709.09;5005546;28;19978;-66
2021/09/02 11:04:03;;;;;;;;;;;;;;;24.20;39.43;101703.47;4989597;28;20384;-66
2021/09/02 11:06:50;;;;;;;;;;;;;;;24.13;39.38;101685.91;4989950;28;19982;-66
2021/09/02 11:09:32;;;;;;;;;;;;;;;24.21;39.85;101685.09;4978034;28;20436;-66
2021/09/02 11:12:00;;;;;;;;;;;;;;;24.53;40.83;101698.03;4987353;28;20078;-66
2021/09/02 11:14:28;;;;;;;;;;;;;;;24.68;39.14;101688.03;4978725;28;19984;-66
2021/09/02 11:16:56;;;;;;;;;;;;;;;24.76;40.36;101682.53;4989411;28;20021;-67
2021/09/02 11:19:31;;;;;;;;;;;;;;;24.94;38.47;101691.44;4989413;28;19984;-66
2021/09/02 11:22:05;;;;;;;;;;;;;;;24.99;39.06;101675.31;4990139;28;20452;-66
2021/09/02 11:24:39;;;;;;;;;;;;;;;25.12;38.53;101680.28;4978289;28;20028;-67
2021/09/02 11:27:07;;;;;;;;;;;;;;;25.27;39.81;101678.50;4990024;28;19993;-67
2021/09/02 11:29:35;;;;;;;;;;;;;;;25.25;37.45;101666.81;4994492;28;20349;-66
2021/09/02 11:32:04;;;;;;;;;;;;;;;25.25;37.65;101666.81;4994682;28;20048;-67
2021/09/02 11:34:32;;;;;;;;;;;;;;;25.36;38.46;101666.44;4994340;28;19981;-67
2021/09/02 11:37:00;;;;;;;;;;;;;;;25.44;39.17;101665.56;4994586;28;20010;-67
2021/09/02 11:39:29;;;;;;;;;;;;;;;25.50;38.57;101659.34;4996732;28;19990;-67
2021/09/02 11:42:02;;;;;;;;;;;;;;;25.75;36.91;101657.34;4994590;28;19978;-67
2021/09/02 11:44:35;;;;;;;;;;;;;;;25.78;37.43;101665.25;4993332;28;20029;-67
2021/09/02 11:47:06;;;;;;;;;;;;;;;25.71;36.72;101655.97;4994603;28;19978;-67
2021/09/02 11:49:34;;;;;;;;;;;;;;;25.62;37.22;101646.03;4994046;28;20633;-66
2021/09/02 11:52:04;;;;;;;;;;;;;;;25.62;38.50;101657.88;4999277;28;19994;-67
2021/09/02 11:54:33;;;;;;;;;;;;;;;25.75;38.08;101646.34;4989713;28;20488;-66
2021/09/02 11:57:03;;;;;;;;;;;;;;;25.73;35.71;101651.19;4984328;28;19985;-67
2021/09/02 11:59:31;;;;;;;;;;;;;;;25.72;35.79;101635.69;4975177;28;19979;-66
2021/09/02 12:01:59;;;;;;;;;;;;;;;25.53;37.23;101636.09;4989560;28;19981;-66
2021/09/02 12:04:29;;;;;;;;;;;;;;;25.79;38.65;101638.56;5001737;28;20084;-66
2021/09/02 12:06:57;;;;;;;;;;;;;;;26.07;36.77;101638.91;4994791;28;19978;-67
2021/09/02 12:09:26;;;;;;;;;;;;;;;26.27;38.15;101637.34;4992251;28;20468;-67
2021/09/02 12:11:54;;;;;;;;;;;;;;;26.00;36.28;101627.75;4992593;28;19999;-66
2021/09/02 12:14:24;;;;;;;;;;;;;;;26.06;36.51;101621.53;4992889;28;20002;-67
2021/09/02 12:17:04;;;;;;;;;;;;;;;26.02;35.93;101613.78;4991799;28;20500;-67
2021/09/02 12:19:47;;;;;;;;;;;;;;;26.07;36.17;101626.00;4993025;28;20417;-67
2021/09/02 12:22:14;;;;;;;;;;;;;;;25.66;37.54;101609.72;4992033;28;19978;-66
2021/09/02 12:24:42;;;;;;;;;;;;;;;25.44;38.40;101606.94;4993151;28;20362;-67
2021/09/02 12:27:10;;;;;;;;;;;;;;;25.46;38.24;101596.59;4991794;28;20465;-67
2021/09/02 12:29:47;;;;;;;;;;;;;;;25.33;37.46;101583.41;4984130;28;20446;-66
2021/09/02 12:32:16;;;;;;;;;;;;;;;25.55;37.56;101588.09;4986785;28;19994;-66
2021/09/02 12:34:44;;;;;;;;;;;;;;;25.81;37.75;101584.19;4982680;28;19975;-67
2021/09/02 12:37:13;;;;;;;;;;;;;;;25.92;36.17;101576.34;4993158;28;20026;-67
2021/09/02 12:39:48;;;;;;;;;;;;;;;25.82;38.27;101584.00;4991931;28;19975;-67
2021/09/02 12:42:21;;;;;;;;;;;;;;;25.68;38.33;101573.78;4990165;28;19978;-66
2021/09/02 12:45:05;;;;;;;;;;;;;;;25.35;36.88;101570.34;4981273;28;20032;-67
2021/09/02 12:47:33;;;;;;;;;;;;;;;24.89;38.88;101561.06;4991879;28;19974;-66